sensor_id;sensor_type;location;lat;lon;timestamp;temperature;humidity
4602;DHT22;2313;48.552;9.370;2023-05-17T00:00:54;6.50;99.90
4602;DHT22;2313;48.552;9.370;2023-05-17T00:03:20;6.50;99.90
4602;DHT22;2313;48.552;9.370;2023-05-17T00:05:45;6.60;99.90
4602;DHT22;2313;48.552;9.370;2023-05-17T00:08:11;6.40;99.90
4602;DHT22;2313;48.552;9.370;2023-05-17T00:10:36;6.30;99.90
4602;DHT22;2313;48.552;9.370;2023-05-17T00:13:02;6.20;99.90
4602;DHT22;2313;48.552;9.370;2023-05-17T00:15:28;6.20;99.90
4602;DHT22;2313;48.552;9.370;2023-05-17T00:17:54;6.30;99.90
4602;DHT22;2313;48.552;9.370;2023-05-17T00:20:20;6.40;99.90
4602;DHT22;2313;48.552;9.370;2023-05-17T00:22:46;6.50;99.90
4602;DHT22;2313;48.552;9.370;2023-05-17T00:25:12;6.50;99.90
4602;DHT22;2313;48.552;9.370;2023-05-17T00:27:38;6.40;99.90
4602;DHT22;2313;48.552;9.370;2023-05-17T00:30:04;6.30;99.90
4602;DHT22;2313;48.552;9.370;2023-05-17T00:32:30;6.40;99.90
4602;DHT22;2313;48.552;9.370;2023-05-17T00:34:56;6.40;99.90
4602;DHT22;2313;48.552;9.370;2023-05-17T00:37:21;6.40;99.90
4602;DHT22;2313;48.552;9.370;2023-05-17T00:39:47;6.50;99.90
4602;DHT22;2313;48.552;9.370;2023-05-17T00:42:13;6.50;99.90
4602;DHT22;2313;48.552;9.370;2023-05-17T00:44:39;6.50;99.90
4602;DHT22;2313;48.552;9.370;2023-05-17T00:47:05;6.40;99.90
4602;DHT22;2313;48.552;9.370;2023-05-17T00:49:30;6.50;99.90
4602;DHT22;2313;48.552;9.370;2023-05-17T00:51:57;6.30;99.90
4602;DHT22;2313;48.552;9.370;2023-05-17T00:54:23;6.20;99.90
4602;DHT22;2313;48.552;9.370;2023-05-17T00:56:51;6.20;99.90
4602;DHT22;2313;48.552;9.370;2023-05-17T00:59:17;6.10;99.90
4602;DHT22;2313;48.552;9.370;2023-05-17T01:01:43;6.00;99.90
4602;DHT22;2313;48.552;9.370;2023-05-17T01:04:09;6.00;99.90
4602;DHT22;2313;48.552;9.370;2023-05-17T01:06:35;6.10;99.90
4602;DHT22;2313;48.552;9.370;2023-05-17T01:09:02;6.20;99.90
4602;DHT22;2313;48.552;9.370;2023-05-17T01:11:46;6.20;99.90
4602;DHT22;2313;48.552;9.370;2023-05-17T01:14:53;6.20;99.90
4602;DHT22;2313;48.552;9.370;2023-05-17T01:20:16;6.30;99.90
4602;DHT22;2313;48.552;9.370;2023-05-17T01:28:02;6.20;99.90
4602;DHT22;2313;48.552;9.370;2023-05-17T01:30:31;6.20;99.90
4602;DHT22;2313;48.552;9.370;2023-05-17T01:32:58;6.10;99.90
4602;DHT22;2313;48.552;9.370;2023-05-17T01:35:25;6.10;99.90
4602;DHT22;2313;48.552;9.370;2023-05-17T01:37:54;6.00;99.90
4602;DHT22;2313;48.552;9.370;2023-05-17T01:40:20;6.00;99.90
4602;DHT22;2313;48.552;9.370;2023-05-17T01:43:01;6.00;99.90
4602;DHT22;2313;48.552;9.370;2023-05-17T01:45:40;5.90;99.90
4602;DHT22;2313;48.552;9.370;2023-05-17T01:48:22;6.00;99.90
4602;DHT22;2313;48.552;9.370;2023-05-17T01:50:51;6.00;99.90
4602;DHT22;2313;48.552;9.370;2023-05-17T01:53:29;5.90;99.90
4602;DHT22;2313;48.552;9.370;2023-05-17T01:56:06;5.90;99.90
4602;DHT22;2313;48.552;9.370;2023-05-17T01:58:39;5.90;99.90
4602;DHT22;2313;48.552;9.370;2023-05-17T02:01:08;5.90;99.90
4602;DHT22;2313;48.552;9.370;2023-05-17T02:03:34;5.90;99.90
4602;DHT22;2313;48.552;9.370;2023-05-17T02:06:00;5.90;99.90
4602;DHT22;2313;48.552;9.370;2023-05-17T02:08:25;5.80;99.90
4602;DHT22;2313;48.552;9.370;2023-05-17T02:10:51;5.60;99.90
4602;DHT22;2313;48.552;9.370;2023-05-17T02:13:16;5.60;99.90
4602;DHT22;2313;48.552;9.370;2023-05-17T02:15:42;5.50;99.90
4602;DHT22;2313;48.552;9.370;2023-05-17T02:18:08;5.50;99.90
4602;DHT22;2313;48.552;9.370;2023-05-17T02:20:34;5.30;99.90
4602;DHT22;2313;48.552;9.370;2023-05-17T02:23:00;5.20;99.90
4602;DHT22;2313;48.552;9.370;2023-05-17T02:25:25;5.10;99.90
4602;DHT22;2313;48.552;9.370;2023-05-17T02:27:51;5.00;99.90
4602;DHT22;2313;48.552;9.370;2023-05-17T02:30:16;4.90;99.90
4602;DHT22;2313;48.552;9.370;2023-05-17T02:32:42;5.00;99.90
4602;DHT22;2313;48.552;9.370;2023-05-17T02:35:08;5.10;99.90
4602;DHT22;2313;48.552;9.370;2023-05-17T02:37:33;5.20;99.90
4602;DHT22;2313;48.552;9.370;2023-05-17T02:39:59;5.20;99.90
4602;DHT22;2313;48.552;9.370;2023-05-17T02:42:25;5.10;99.90
4602;DHT22;2313;48.552;9.370;2023-05-17T02:44:50;5.10;99.90
4602;DHT22;2313;48.552;9.370;2023-05-17T02:47:18;5.10;99.90
4602;DHT22;2313;48.552;9.370;2023-05-17T02:49:45;5.00;99.90
4602;DHT22;2313;48.552;9.370;2023-05-17T02:52:11;4.90;99.90
4602;DHT22;2313;48.552;9.370;2023-05-17T02:54:37;5.00;99.90
4602;DHT22;2313;48.552;9.370;2023-05-17T02:57:03;5.00;99.90
4602;DHT22;2313;48.552;9.370;2023-05-17T02:59:28;4.80;99.90
4602;DHT22;2313;48.552;9.370;2023-05-17T03:01:54;4.60;99.90
4602;DHT22;2313;48.552;9.370;2023-05-17T03:04:19;4.40;99.90
4602;DHT22;2313;48.552;9.370;2023-05-17T03:06:45;4.40;99.90
4602;DHT22;2313;48.552;9.370;2023-05-17T03:09:11;4.50;99.90
4602;DHT22;2313;48.552;9.370;2023-05-17T03:11:36;4.60;99.90
4602;DHT22;2313;48.552;9.370;2023-05-17T03:14:02;4.60;99.90
4602;DHT22;2313;48.552;9.370;2023-05-17T03:16:27;4.50;99.90
4602;DHT22;2313;48.552;9.370;2023-05-17T03:18:53;4.60;99.90
4602;DHT22;2313;48.552;9.370;2023-05-17T03:21:18;4.60;99.90
4602;DHT22;2313;48.552;9.370;2023-05-17T03:23:44;4.60;99.90
4602;DHT22;2313;48.552;9.370;2023-05-17T03:26:10;4.50;99.90
4602;DHT22;2313;48.552;9.370;2023-05-17T03:28:35;4.50;99.90
4602;DHT22;2313;48.552;9.370;2023-05-17T03:31:01;4.60;99.90
4602;DHT22;2313;48.552;9.370;2023-05-17T03:33:26;4.60;99.90
4602;DHT22;2313;48.552;9.370;2023-05-17T03:35:52;4.60;99.90
4602;DHT22;2313;48.552;9.370;2023-05-17T03:38:18;4.60;99.90
4602;DHT22;2313;48.552;9.370;2023-05-17T03:40:43;4.60;99.90
4602;DHT22;2313;48.552;9.370;2023-05-17T03:43:09;4.50;99.90
4602;DHT22;2313;48.552;9.370;2023-05-17T03:45:34;4.50;99.90
4602;DHT22;2313;48.552;9.370;2023-05-17T03:48:00;4.50;99.90
4602;DHT22;2313;48.552;9.370;2023-05-17T03:50:25;4.50;99.90
4602;DHT22;2313;48.552;9.370;2023-05-17T03:52:51;4.60;99.90
4602;DHT22;2313;48.552;9.370;2023-05-17T03:55:17;4.50;99.90
4602;DHT22;2313;48.552;9.370;2023-05-17T03:57:42;4.50;99.90
4602;DHT22;2313;48.552;9.370;2023-05-17T04:00:08;4.60;99.90
4602;DHT22;2313;48.552;9.370;2023-05-17T04:02:36;4.60;99.90
4602;DHT22;2313;48.552;9.370;2023-05-17T04:05:01;4.60;99.90
4602;DHT22;2313;48.552;9.370;2023-05-17T04:07:27;4.70;99.90
4602;DHT22;2313;48.552;9.370;2023-05-17T04:09:56;4.70;99.90
4602;DHT22;2313;48.552;9.370;2023-05-17T04:12:27;4.70;99.90
4602;DHT22;2313;48.552;9.370;2023-05-17T04:14:52;4.70;99.90
4602;DHT22;2313;48.552;9.370;2023-05-17T04:17:18;4.70;99.90
4602;DHT22;2313;48.552;9.370;2023-05-17T04:19:43;4.70;99.90
4602;DHT22;2313;48.552;9.370;2023-05-17T04:22:09;4.70;99.90
4602;DHT22;2313;48.552;9.370;2023-05-17T04:24:35;4.70;99.90
4602;DHT22;2313;48.552;9.370;2023-05-17T04:27:00;4.80;99.90
4602;DHT22;2313;48.552;9.370;2023-05-17T04:29:28;4.80;99.90
4602;DHT22;2313;48.552;9.370;2023-05-17T04:31:54;4.90;99.90
4602;DHT22;2313;48.552;9.370;2023-05-17T04:34:20;4.90;99.90
4602;DHT22;2313;48.552;9.370;2023-05-17T04:36:48;5.00;99.90
4602;DHT22;2313;48.552;9.370;2023-05-17T04:39:13;5.10;99.90
4602;DHT22;2313;48.552;9.370;2023-05-17T04:41:39;5.10;99.90
4602;DHT22;2313;48.552;9.370;2023-05-17T04:44:05;5.10;99.90
4602;DHT22;2313;48.552;9.370;2023-05-17T04:46:32;5.10;99.90
4602;DHT22;2313;48.552;9.370;2023-05-17T04:48:57;5.20;99.90
4602;DHT22;2313;48.552;9.370;2023-05-17T04:51:23;5.30;99.90
4602;DHT22;2313;48.552;9.370;2023-05-17T04:53:48;5.30;99.90
4602;DHT22;2313;48.552;9.370;2023-05-17T04:56:14;5.40;99.90
4602;DHT22;2313;48.552;9.370;2023-05-17T04:58:40;5.50;99.90
4602;DHT22;2313;48.552;9.370;2023-05-17T05:01:06;5.50;99.90
4602;DHT22;2313;48.552;9.370;2023-05-17T05:03:31;5.70;99.90
4602;DHT22;2313;48.552;9.370;2023-05-17T05:05:57;5.80;99.90
4602;DHT22;2313;48.552;9.370;2023-05-17T05:08:23;6.00;99.90
4602;DHT22;2313;48.552;9.370;2023-05-17T05:10:48;6.10;99.90
4602;DHT22;2313;48.552;9.370;2023-05-17T05:13:15;6.20;99.90
4602;DHT22;2313;48.552;9.370;2023-05-17T05:15:41;6.30;99.90
4602;DHT22;2313;48.552;9.370;2023-05-17T05:18:07;6.40;99.90
4602;DHT22;2313;48.552;9.370;2023-05-17T05:20:32;6.50;99.90
4602;DHT22;2313;48.552;9.370;2023-05-17T05:22:58;6.70;99.90
4602;DHT22;2313;48.552;9.370;2023-05-17T05:25:25;6.90;99.90
4602;DHT22;2313;48.552;9.370;2023-05-17T05:27:51;7.00;99.90
4602;DHT22;2313;48.552;9.370;2023-05-17T05:30:17;7.00;99.90
4602;DHT22;2313;48.552;9.370;2023-05-17T05:32:47;7.30;99.90
4602;DHT22;2313;48.552;9.370;2023-05-17T05:35:13;7.40;99.90
4602;DHT22;2313;48.552;9.370;2023-05-17T05:37:40;7.50;99.90
4602;DHT22;2313;48.552;9.370;2023-05-17T05:40:06;7.60;99.90
4602;DHT22;2313;48.552;9.370;2023-05-17T05:42:33;7.80;99.90
4602;DHT22;2313;48.552;9.370;2023-05-17T05:44:59;7.90;99.90
4602;DHT22;2313;48.552;9.370;2023-05-17T05:47:24;8.10;99.90
4602;DHT22;2313;48.552;9.370;2023-05-17T05:49:50;8.20;99.90
4602;DHT22;2313;48.552;9.370;2023-05-17T05:52:15;8.30;99.90
4602;DHT22;2313;48.552;9.370;2023-05-17T05:54:41;8.40;99.90
4602;DHT22;2313;48.552;9.370;2023-05-17T05:57:07;8.50;99.90
4602;DHT22;2313;48.552;9.370;2023-05-17T05:59:32;8.60;99.90
4602;DHT22;2313;48.552;9.370;2023-05-17T06:01:58;8.70;99.90
4602;DHT22;2313;48.552;9.370;2023-05-17T06:04:24;8.80;99.90
4602;DHT22;2313;48.552;9.370;2023-05-17T06:06:49;9.00;99.90
4602;DHT22;2313;48.552;9.370;2023-05-17T06:09:15;9.10;99.90
4602;DHT22;2313;48.552;9.370;2023-05-17T06:11:41;9.20;99.90
4602;DHT22;2313;48.552;9.370;2023-05-17T06:14:06;9.30;99.90
4602;DHT22;2313;48.552;9.370;2023-05-17T06:16:33;9.30;99.90
4602;DHT22;2313;48.552;9.370;2023-05-17T06:18:59;9.40;99.90
4602;DHT22;2313;48.552;9.370;2023-05-17T06:21:24;9.50;99.90
4602;DHT22;2313;48.552;9.370;2023-05-17T06:23:51;9.60;99.90
4602;DHT22;2313;48.552;9.370;2023-05-17T06:26:16;9.70;99.90
4602;DHT22;2313;48.552;9.370;2023-05-17T06:28:42;9.80;99.90
4602;DHT22;2313;48.552;9.370;2023-05-17T06:31:07;9.80;99.90
4602;DHT22;2313;48.552;9.370;2023-05-17T06:33:33;10.00;99.90
4602;DHT22;2313;48.552;9.370;2023-05-17T06:35:58;10.00;99.90
4602;DHT22;2313;48.552;9.370;2023-05-17T06:38:24;10.10;99.90
4602;DHT22;2313;48.552;9.370;2023-05-17T06:40:52;10.20;99.90
4602;DHT22;2313;48.552;9.370;2023-05-17T06:43:18;10.30;99.90
4602;DHT22;2313;48.552;9.370;2023-05-17T06:45:43;10.40;99.90
4602;DHT22;2313;48.552;9.370;2023-05-17T06:48:09;10.40;99.90
4602;DHT22;2313;48.552;9.370;2023-05-17T06:50:34;10.60;99.90
4602;DHT22;2313;48.552;9.370;2023-05-17T06:53:01;10.60;99.90
4602;DHT22;2313;48.552;9.370;2023-05-17T06:55:26;10.90;99.90
4602;DHT22;2313;48.552;9.370;2023-05-17T06:57:52;11.00;99.90
4602;DHT22;2313;48.552;9.370;2023-05-17T07:00:17;11.20;99.90
4602;DHT22;2313;48.552;9.370;2023-05-17T07:02:43;11.10;99.90
4602;DHT22;2313;48.552;9.370;2023-05-17T07:05:09;11.30;99.90
4602;DHT22;2313;48.552;9.370;2023-05-17T07:07:34;11.40;99.90
4602;DHT22;2313;48.552;9.370;2023-05-17T07:10:00;11.60;99.90
4602;DHT22;2313;48.552;9.370;2023-05-17T07:12:26;11.70;99.90
4602;DHT22;2313;48.552;9.370;2023-05-17T07:14:51;11.50;99.90
4602;DHT22;2313;48.552;9.370;2023-05-17T07:17:17;11.40;99.90
4602;DHT22;2313;48.552;9.370;2023-05-17T07:19:42;11.50;99.90
4602;DHT22;2313;48.552;9.370;2023-05-17T07:22:08;11.70;99.90
4602;DHT22;2313;48.552;9.370;2023-05-17T07:24:34;11.60;99.90
4602;DHT22;2313;48.552;9.370;2023-05-17T07:27:00;11.70;99.90
4602;DHT22;2313;48.552;9.370;2023-05-17T07:29:26;11.80;99.90
4602;DHT22;2313;48.552;9.370;2023-05-17T07:31:51;11.90;99.90
4602;DHT22;2313;48.552;9.370;2023-05-17T07:34:17;12.00;99.90
4602;DHT22;2313;48.552;9.370;2023-05-17T07:36:42;12.10;99.90
4602;DHT22;2313;48.552;9.370;2023-05-17T07:39:08;12.20;99.90
4602;DHT22;2313;48.552;9.370;2023-05-17T07:41:35;12.10;99.90
4602;DHT22;2313;48.552;9.370;2023-05-17T07:44:00;11.90;99.90
4602;DHT22;2313;48.552;9.370;2023-05-17T07:46:26;11.80;99.90
4602;DHT22;2313;48.552;9.370;2023-05-17T07:48:52;11.80;99.90
4602;DHT22;2313;48.552;9.370;2023-05-17T07:51:17;11.80;99.90
4602;DHT22;2313;48.552;9.370;2023-05-17T07:53:44;11.70;99.90
4602;DHT22;2313;48.552;9.370;2023-05-17T07:56:10;12.10;99.90
4602;DHT22;2313;48.552;9.370;2023-05-17T07:58:35;12.10;99.90
4602;DHT22;2313;48.552;9.370;2023-05-17T08:01:01;12.20;99.90
4602;DHT22;2313;48.552;9.370;2023-05-17T08:03:26;12.40;99.90
4602;DHT22;2313;48.552;9.370;2023-05-17T08:05:53;12.50;99.90
4602;DHT22;2313;48.552;9.370;2023-05-17T08:08:18;12.40;99.90
4602;DHT22;2313;48.552;9.370;2023-05-17T08:10:45;12.60;99.90
4602;DHT22;2313;48.552;9.370;2023-05-17T08:13:11;12.50;99.90
4602;DHT22;2313;48.552;9.370;2023-05-17T08:15:36;12.60;99.90
4602;DHT22;2313;48.552;9.370;2023-05-17T08:18:02;12.70;99.90
4602;DHT22;2313;48.552;9.370;2023-05-17T08:20:27;12.60;99.90
4602;DHT22;2313;48.552;9.370;2023-05-17T08:22:53;12.30;99.90
4602;DHT22;2313;48.552;9.370;2023-05-17T08:25:19;12.20;99.90
4602;DHT22;2313;48.552;9.370;2023-05-17T08:27:45;12.00;99.90
4602;DHT22;2313;48.552;9.370;2023-05-17T08:30:11;11.80;99.90
4602;DHT22;2313;48.552;9.370;2023-05-17T08:32:36;11.60;99.90
4602;DHT22;2313;48.552;9.370;2023-05-17T08:35:03;11.50;99.90
4602;DHT22;2313;48.552;9.370;2023-05-17T08:37:29;11.80;99.90
4602;DHT22;2313;48.552;9.370;2023-05-17T08:39:55;12.10;99.90
4602;DHT22;2313;48.552;9.370;2023-05-17T08:42:21;12.10;99.90
4602;DHT22;2313;48.552;9.370;2023-05-17T08:44:50;11.90;99.90
4602;DHT22;2313;48.552;9.370;2023-05-17T08:47:18;11.90;99.90
4602;DHT22;2313;48.552;9.370;2023-05-17T08:49:53;12.00;99.90
4602;DHT22;2313;48.552;9.370;2023-05-17T08:52:19;12.00;99.90
4602;DHT22;2313;48.552;9.370;2023-05-17T08:54:46;12.10;99.90
4602;DHT22;2313;48.552;9.370;2023-05-17T08:57:12;12.00;99.90
4602;DHT22;2313;48.552;9.370;2023-05-17T08:59:38;12.20;99.90
4602;DHT22;2313;48.552;9.370;2023-05-17T09:02:05;12.10;99.90
4602;DHT22;2313;48.552;9.370;2023-05-17T09:04:32;12.10;99.90
4602;DHT22;2313;48.552;9.370;2023-05-17T09:06:57;12.10;99.90
4602;DHT22;2313;48.552;9.370;2023-05-17T09:09:24;12.20;99.90
4602;DHT22;2313;48.552;9.370;2023-05-17T09:11:49;12.30;99.90
4602;DHT22;2313;48.552;9.370;2023-05-17T09:14:15;12.40;99.90
4602;DHT22;2313;48.552;9.370;2023-05-17T09:16:42;12.40;99.90
4602;DHT22;2313;48.552;9.370;2023-05-17T09:19:13;12.50;99.90
4602;DHT22;2313;48.552;9.370;2023-05-17T09:21:39;12.40;99.90
4602;DHT22;2313;48.552;9.370;2023-05-17T09:24:05;12.30;99.90
4602;DHT22;2313;48.552;9.370;2023-05-17T09:26:41;12.30;99.90
4602;DHT22;2313;48.552;9.370;2023-05-17T09:29:14;12.10;99.90
4602;DHT22;2313;48.552;9.370;2023-05-17T09:31:41;12.20;99.90
4602;DHT22;2313;48.552;9.370;2023-05-17T09:34:07;12.10;99.90
4602;DHT22;2313;48.552;9.370;2023-05-17T09:36:35;12.30;99.90
4602;DHT22;2313;48.552;9.370;2023-05-17T09:39:03;12.30;99.90
4602;DHT22;2313;48.552;9.370;2023-05-17T09:41:45;12.50;99.90
4602;DHT22;2313;48.552;9.370;2023-05-17T09:44:12;12.60;99.90
4602;DHT22;2313;48.552;9.370;2023-05-17T09:46:44;12.70;99.90
4602;DHT22;2313;48.552;9.370;2023-05-17T09:49:10;12.80;99.90
4602;DHT22;2313;48.552;9.370;2023-05-17T09:51:40;13.10;99.90
4602;DHT22;2313;48.552;9.370;2023-05-17T09:54:06;13.30;99.90
4602;DHT22;2313;48.552;9.370;2023-05-17T09:56:33;13.40;99.90
4602;DHT22;2313;48.552;9.370;2023-05-17T09:59:03;13.30;99.90
4602;DHT22;2313;48.552;9.370;2023-05-17T10:01:30;13.20;99.90
4602;DHT22;2313;48.552;9.370;2023-05-17T10:04:00;13.30;99.90
4602;DHT22;2313;48.552;9.370;2023-05-17T10:06:28;14.10;99.90
4602;DHT22;2313;48.552;9.370;2023-05-17T10:08:56;15.30;99.90
4602;DHT22;2313;48.552;9.370;2023-05-17T10:11:29;16.00;99.90
4602;DHT22;2313;48.552;9.370;2023-05-17T10:14:22;15.70;99.90
4602;DHT22;2313;48.552;9.370;2023-05-17T10:16:48;15.10;99.90
4602;DHT22;2313;48.552;9.370;2023-05-17T10:19:14;14.90;99.90
4602;DHT22;2313;48.552;9.370;2023-05-17T10:21:40;14.70;99.90
4602;DHT22;2313;48.552;9.370;2023-05-17T10:24:08;14.30;99.90
4602;DHT22;2313;48.552;9.370;2023-05-17T10:26:35;14.00;99.90
4602;DHT22;2313;48.552;9.370;2023-05-17T10:29:02;13.90;99.90
4602;DHT22;2313;48.552;9.370;2023-05-17T10:31:29;13.80;99.90
4602;DHT22;2313;48.552;9.370;2023-05-17T10:33:55;13.70;99.90
4602;DHT22;2313;48.552;9.370;2023-05-17T10:36:23;13.70;99.90
4602;DHT22;2313;48.552;9.370;2023-05-17T10:38:50;13.60;99.90
4602;DHT22;2313;48.552;9.370;2023-05-17T10:41:17;13.40;99.90
4602;DHT22;2313;48.552;9.370;2023-05-17T10:43:44;13.40;99.90
4602;DHT22;2313;48.552;9.370;2023-05-17T10:46:14;13.30;99.90
4602;DHT22;2313;48.552;9.370;2023-05-17T10:48:40;13.20;99.90
4602;DHT22;2313;48.552;9.370;2023-05-17T10:51:06;13.30;99.90
4602;DHT22;2313;48.552;9.370;2023-05-17T10:53:32;13.30;99.90
4602;DHT22;2313;48.552;9.370;2023-05-17T10:55:58;13.30;99.90
4602;DHT22;2313;48.552;9.370;2023-05-17T10:58:27;13.30;99.90
4602;DHT22;2313;48.552;9.370;2023-05-17T11:00:53;13.10;99.90
4602;DHT22;2313;48.552;9.370;2023-05-17T11:03:28;13.00;99.90
4602;DHT22;2313;48.552;9.370;2023-05-17T11:06:17;13.10;99.90
4602;DHT22;2313;48.552;9.370;2023-05-17T11:09:04;13.30;99.90
4602;DHT22;2313;48.552;9.370;2023-05-17T11:11:30;13.40;99.90
4602;DHT22;2313;48.552;9.370;2023-05-17T11:13:56;13.60;99.90
4602;DHT22;2313;48.552;9.370;2023-05-17T11:16:32;13.70;99.90
4602;DHT22;2313;48.552;9.370;2023-05-17T11:19:06;13.60;99.90
4602;DHT22;2313;48.552;9.370;2023-05-17T11:21:32;13.40;99.90
4602;DHT22;2313;48.552;9.370;2023-05-17T11:24:01;13.50;99.90
4602;DHT22;2313;48.552;9.370;2023-05-17T11:29:08;13.60;99.90
4602;DHT22;2313;48.552;9.370;2023-05-17T11:31:43;13.70;99.90
4602;DHT22;2313;48.552;9.370;2023-05-17T11:34:09;13.70;99.90
4602;DHT22;2313;48.552;9.370;2023-05-17T11:36:53;13.70;99.90
4602;DHT22;2313;48.552;9.370;2023-05-17T11:39:21;13.60;99.90
4602;DHT22;2313;48.552;9.370;2023-05-17T11:41:53;13.60;99.90
4602;DHT22;2313;48.552;9.370;2023-05-17T11:44:37;13.60;99.90
4602;DHT22;2313;48.552;9.370;2023-05-17T11:47:04;13.60;99.90
4602;DHT22;2313;48.552;9.370;2023-05-17T11:49:31;13.60;99.90
4602;DHT22;2313;48.552;9.370;2023-05-17T11:51:58;13.90;99.90
4602;DHT22;2313;48.552;9.370;2023-05-17T11:54:24;14.60;99.90
4602;DHT22;2313;48.552;9.370;2023-05-17T11:56:52;14.90;99.90
4602;DHT22;2313;48.552;9.370;2023-05-17T11:59:19;14.80;99.90
4602;DHT22;2313;48.552;9.370;2023-05-17T12:01:45;14.50;99.90
4602;DHT22;2313;48.552;9.370;2023-05-17T12:04:11;14.30;99.90
4602;DHT22;2313;48.552;9.370;2023-05-17T12:06:37;14.10;99.90
4602;DHT22;2313;48.552;9.370;2023-05-17T12:09:03;13.90;99.90
4602;DHT22;2313;48.552;9.370;2023-05-17T12:11:30;13.80;99.90
4602;DHT22;2313;48.552;9.370;2023-05-17T12:13:56;13.70;99.90
4602;DHT22;2313;48.552;9.370;2023-05-17T12:16:21;14.10;99.90
4602;DHT22;2313;48.552;9.370;2023-05-17T12:18:49;14.20;99.90
4602;DHT22;2313;48.552;9.370;2023-05-17T12:21:16;14.20;99.90
4602;DHT22;2313;48.552;9.370;2023-05-17T12:23:46;14.30;99.90
4602;DHT22;2313;48.552;9.370;2023-05-17T12:26:23;14.10;99.90
4602;DHT22;2313;48.552;9.370;2023-05-17T12:28:59;14.00;99.90
4602;DHT22;2313;48.552;9.370;2023-05-17T12:31:30;13.70;99.90
4602;DHT22;2313;48.552;9.370;2023-05-17T12:33:57;13.60;99.90
4602;DHT22;2313;48.552;9.370;2023-05-17T12:36:24;13.80;99.90
4602;DHT22;2313;48.552;9.370;2023-05-17T12:38:52;14.00;99.90
4602;DHT22;2313;48.552;9.370;2023-05-17T12:41:19;14.40;99.90
4602;DHT22;2313;48.552;9.370;2023-05-17T12:43:47;15.00;99.90
4602;DHT22;2313;48.552;9.370;2023-05-17T12:46:16;15.20;99.90
4602;DHT22;2313;48.552;9.370;2023-05-17T12:48:45;15.10;99.90
4602;DHT22;2313;48.552;9.370;2023-05-17T12:51:12;14.70;99.90
4602;DHT22;2313;48.552;9.370;2023-05-17T12:53:42;14.50;99.90
4602;DHT22;2313;48.552;9.370;2023-05-17T12:56:15;14.20;99.90
4602;DHT22;2313;48.552;9.370;2023-05-17T12:58:40;14.10;99.90
4602;DHT22;2313;48.552;9.370;2023-05-17T13:01:06;14.10;99.90
4602;DHT22;2313;48.552;9.370;2023-05-17T13:03:35;14.10;99.90
4602;DHT22;2313;48.552;9.370;2023-05-17T13:06:05;14.30;99.90
4602;DHT22;2313;48.552;9.370;2023-05-17T13:08:33;14.20;99.90
4602;DHT22;2313;48.552;9.370;2023-05-17T13:11:12;14.20;99.90
4602;DHT22;2313;48.552;9.370;2023-05-17T13:13:38;14.00;99.90
4602;DHT22;2313;48.552;9.370;2023-05-17T13:16:04;13.90;99.90
4602;DHT22;2313;48.552;9.370;2023-05-17T13:18:30;13.90;99.90
4602;DHT22;2313;48.552;9.370;2023-05-17T13:21:00;13.70;99.90
4602;DHT22;2313;48.552;9.370;2023-05-17T13:23:25;13.80;99.90
4602;DHT22;2313;48.552;9.370;2023-05-17T13:25:51;13.80;99.90
4602;DHT22;2313;48.552;9.370;2023-05-17T13:28:18;14.10;99.90
4602;DHT22;2313;48.552;9.370;2023-05-17T13:30:44;14.30;99.90
4602;DHT22;2313;48.552;9.370;2023-05-17T13:33:14;14.10;99.90
4602;DHT22;2313;48.552;9.370;2023-05-17T13:35:40;14.00;99.90
4602;DHT22;2313;48.552;9.370;2023-05-17T13:38:05;13.60;99.90
4602;DHT22;2313;48.552;9.370;2023-05-17T13:40:31;13.40;99.90
4602;DHT22;2313;48.552;9.370;2023-05-17T13:42:56;13.40;99.90
4602;DHT22;2313;48.552;9.370;2023-05-17T13:45:22;13.50;99.90
4602;DHT22;2313;48.552;9.370;2023-05-17T13:47:47;13.50;99.90
4602;DHT22;2313;48.552;9.370;2023-05-17T13:50:13;13.40;99.90
4602;DHT22;2313;48.552;9.370;2023-05-17T13:52:41;13.50;99.90
4602;DHT22;2313;48.552;9.370;2023-05-17T13:55:08;13.60;99.90
4602;DHT22;2313;48.552;9.370;2023-05-17T13:57:33;13.60;99.90
4602;DHT22;2313;48.552;9.370;2023-05-17T13:59:59;13.40;99.90
4602;DHT22;2313;48.552;9.370;2023-05-17T14:02:25;13.40;99.90
4602;DHT22;2313;48.552;9.370;2023-05-17T14:04:50;13.40;99.90
4602;DHT22;2313;48.552;9.370;2023-05-17T14:07:16;13.40;99.90
4602;DHT22;2313;48.552;9.370;2023-05-17T14:09:42;13.50;99.90
4602;DHT22;2313;48.552;9.370;2023-05-17T14:12:07;13.60;99.90
4602;DHT22;2313;48.552;9.370;2023-05-17T14:14:33;13.70;99.90
4602;DHT22;2313;48.552;9.370;2023-05-17T14:16:59;13.90;99.90
4602;DHT22;2313;48.552;9.370;2023-05-17T14:19:26;14.00;99.90
4602;DHT22;2313;48.552;9.370;2023-05-17T14:21:51;14.00;99.90
4602;DHT22;2313;48.552;9.370;2023-05-17T14:24:17;13.90;99.90
4602;DHT22;2313;48.552;9.370;2023-05-17T14:26:42;13.70;99.90
4602;DHT22;2313;48.552;9.370;2023-05-17T14:29:08;13.40;99.90
4602;DHT22;2313;48.552;9.370;2023-05-17T14:31:34;13.20;99.90
4602;DHT22;2313;48.552;9.370;2023-05-17T14:34:00;13.10;99.90
4602;DHT22;2313;48.552;9.370;2023-05-17T14:36:27;13.20;99.90
4602;DHT22;2313;48.552;9.370;2023-05-17T14:38:52;13.10;99.90
4602;DHT22;2313;48.552;9.370;2023-05-17T14:41:18;13.00;99.90
4602;DHT22;2313;48.552;9.370;2023-05-17T14:43:44;12.90;99.90
4602;DHT22;2313;48.552;9.370;2023-05-17T14:46:10;12.80;99.90
4602;DHT22;2313;48.552;9.370;2023-05-17T14:48:36;12.90;99.90
4602;DHT22;2313;48.552;9.370;2023-05-17T14:51:01;13.00;99.90
4602;DHT22;2313;48.552;9.370;2023-05-17T14:53:28;13.00;99.90
4602;DHT22;2313;48.552;9.370;2023-05-17T14:55:57;13.00;99.90
4602;DHT22;2313;48.552;9.370;2023-05-17T14:58:23;13.10;99.90
4602;DHT22;2313;48.552;9.370;2023-05-17T15:00:49;13.20;99.90
4602;DHT22;2313;48.552;9.370;2023-05-17T15:03:18;13.20;99.90
4602;DHT22;2313;48.552;9.370;2023-05-17T15:05:44;13.30;99.90
4602;DHT22;2313;48.552;9.370;2023-05-17T15:08:09;13.30;99.90
4602;DHT22;2313;48.552;9.370;2023-05-17T15:10:37;13.20;99.90
4602;DHT22;2313;48.552;9.370;2023-05-17T15:13:03;13.30;99.90
4602;DHT22;2313;48.552;9.370;2023-05-17T15:15:28;13.40;99.90
4602;DHT22;2313;48.552;9.370;2023-05-17T15:17:54;13.40;99.90
4602;DHT22;2313;48.552;9.370;2023-05-17T15:20:20;13.50;99.90
4602;DHT22;2313;48.552;9.370;2023-05-17T15:22:45;13.80;99.90
4602;DHT22;2313;48.552;9.370;2023-05-17T15:25:12;13.80;99.90
4602;DHT22;2313;48.552;9.370;2023-05-17T15:27:37;13.90;99.90
4602;DHT22;2313;48.552;9.370;2023-05-17T15:30:03;14.20;99.90
4602;DHT22;2313;48.552;9.370;2023-05-17T15:32:29;14.30;99.90
4602;DHT22;2313;48.552;9.370;2023-05-17T15:34:55;14.20;99.90
4602;DHT22;2313;48.552;9.370;2023-05-17T15:37:22;14.00;99.90
4602;DHT22;2313;48.552;9.370;2023-05-17T15:39:47;13.80;99.90
4602;DHT22;2313;48.552;9.370;2023-05-17T15:42:13;13.70;99.90
4602;DHT22;2313;48.552;9.370;2023-05-17T15:44:38;13.70;99.90
4602;DHT22;2313;48.552;9.370;2023-05-17T15:47:04;13.70;99.90
4602;DHT22;2313;48.552;9.370;2023-05-17T15:49:29;13.50;99.90
4602;DHT22;2313;48.552;9.370;2023-05-17T15:51:55;13.40;99.90
4602;DHT22;2313;48.552;9.370;2023-05-17T15:54:21;13.40;99.90
4602;DHT22;2313;48.552;9.370;2023-05-17T15:56:46;13.50;99.90
4602;DHT22;2313;48.552;9.370;2023-05-17T15:59:12;13.60;99.90
4602;DHT22;2313;48.552;9.370;2023-05-17T16:01:40;13.50;99.90
4602;DHT22;2313;48.552;9.370;2023-05-17T16:04:06;13.50;99.90
4602;DHT22;2313;48.552;9.370;2023-05-17T16:06:31;13.50;99.90
4602;DHT22;2313;48.552;9.370;2023-05-17T16:09:00;13.70;99.90
4602;DHT22;2313;48.552;9.370;2023-05-17T16:11:26;13.80;99.90
4602;DHT22;2313;48.552;9.370;2023-05-17T16:13:51;13.90;99.90
4602;DHT22;2313;48.552;9.370;2023-05-17T16:16:17;13.90;99.90